createdAt,value
2023-04-04T00:00:32.833Z,25.37
2023-04-04T00:01:32.879Z,25.37
2023-04-04T00:02:33.033Z,25.37
2023-04-04T00:03:33.339Z,25.37
2023-04-04T00:04:33.010Z,25.36
2023-04-04T00:05:32.988Z,25.36
2023-04-04T00:06:32.949Z,25.34
2023-04-04T00:07:32.954Z,25.36
2023-04-04T00:08:32.958Z,25.37
2023-04-04T00:09:32.948Z,25.34
2023-04-04T00:10:32.949Z,25.36
2023-04-04T00:11:32.972Z,25.36
2023-04-04T00:12:33.019Z,25.36
2023-04-04T00:13:33.068Z,25.33
2023-04-04T00:14:33.138Z,25.33
2023-04-04T00:15:33.177Z,25.33
2023-04-04T00:16:33.381Z,25.36
2023-04-04T00:17:33.314Z,25.34
2023-04-04T00:18:33.324Z,25.34
2023-04-04T00:19:33.310Z,25.34
2023-04-04T00:20:33.309Z,25.34
2023-04-04T00:21:33.321Z,25.33
2023-04-04T00:22:33.339Z,25.33
2023-04-04T00:23:33.339Z,25.34
2023-04-04T00:24:33.349Z,25.33
2023-04-04T00:25:33.329Z,25.34
2023-04-04T00:26:34.498Z,25.33
2023-04-04T00:27:33.319Z,25.34
2023-04-04T00:28:33.355Z,25.33
2023-04-04T00:29:33.408Z,25.33
2023-04-04T00:30:33.489Z,25.34
2023-04-04T00:31:33.567Z,25.32
2023-04-04T00:32:33.677Z,25.33
2023-04-04T00:33:33.659Z,25.34
2023-04-04T00:34:33.724Z,25.33
2023-04-04T00:35:33.792Z,25.34
2023-04-04T00:36:33.846Z,25.36
2023-04-04T00:37:33.923Z,25.33
2023-04-04T00:38:33.972Z,25.32
2023-04-04T00:39:34.039Z,25.34
2023-04-04T00:40:34.087Z,25.32
2023-04-04T00:41:34.147Z,25.34
2023-04-04T00:42:34.207Z,25.32
2023-04-04T00:43:34.273Z,25.32
2023-04-04T00:44:34.327Z,25.32
2023-04-04T00:45:34.401Z,25.33
2023-04-04T00:46:34.485Z,25.32
2023-04-04T00:47:34.493Z,25.33
2023-04-04T00:48:34.595Z,25.30
2023-04-04T00:49:34.648Z,25.33
2023-04-04T00:50:34.659Z,25.33
2023-04-04T00:51:34.708Z,25.32
2023-04-04T00:52:34.873Z,25.32
2023-04-04T00:53:34.856Z,25.32
2023-04-04T00:54:34.986Z,25.30
2023-04-04T00:55:34.954Z,25.30
2023-04-04T00:56:35.012Z,25.30
2023-04-04T00:57:35.128Z,25.30
2023-04-04T00:58:35.127Z,25.29
2023-04-04T00:59:35.164Z,25.32
2023-04-04T01:00:35.201Z,25.29
2023-04-04T01:01:35.353Z,25.30
2023-04-04T01:02:35.280Z,25.28
2023-04-04T01:03:35.310Z,25.30
2023-04-04T01:04:35.369Z,25.30
2023-04-04T01:05:35.383Z,25.32
2023-04-04T01:06:35.427Z,25.29
2023-04-04T01:07:37.104Z,25.32
2023-04-04T01:08:35.487Z,25.29
2023-04-04T01:09:35.508Z,25.29
2023-04-04T01:10:35.567Z,25.28
2023-04-04T01:11:35.615Z,25.30
2023-04-04T01:12:35.644Z,25.30
2023-04-04T01:13:35.669Z,25.28
2023-04-04T01:14:35.707Z,25.29
2023-04-04T01:15:35.750Z,25.30
2023-04-04T01:16:35.809Z,25.29
2023-04-04T01:17:35.912Z,25.32
2023-04-04T01:18:35.915Z,25.30
2023-04-04T01:19:35.971Z,25.29
2023-04-04T01:20:36.021Z,25.26
2023-04-04T01:21:36.089Z,25.29
2023-04-04T01:22:36.149Z,25.28
2023-04-04T01:23:36.209Z,25.28
2023-04-04T01:24:36.272Z,25.28
2023-04-04T01:25:36.354Z,25.28
2023-04-04T01:26:36.404Z,25.28
2023-04-04T01:27:36.477Z,25.25
2023-04-04T01:28:36.540Z,25.26
2023-04-04T01:29:36.586Z,25.25
2023-04-04T01:30:36.674Z,25.26
2023-04-04T01:31:36.712Z,25.28
2023-04-04T01:32:36.790Z,25.26
2023-04-04T01:33:36.821Z,25.26
2023-04-04T01:34:36.913Z,25.28
2023-04-04T01:35:36.983Z,25.28
2023-04-04T01:36:37.034Z,25.26
2023-04-04T01:37:37.070Z,25.25
2023-04-04T01:38:37.134Z,25.28
2023-04-04T01:39:37.226Z,25.28
2023-04-04T01:40:37.359Z,25.26
2023-04-04T01:41:37.324Z,25.26
2023-04-04T01:42:37.409Z,25.26
2023-04-04T01:43:37.456Z,25.26
2023-04-04T01:44:37.535Z,25.28
2023-04-04T01:45:37.597Z,25.25
2023-04-04T01:46:37.653Z,25.28
2023-04-04T01:47:37.739Z,25.28
2023-04-04T01:48:37.777Z,25.28
2023-04-04T01:49:37.843Z,25.25
2023-04-04T01:50:38.067Z,25.23
2023-04-04T01:51:37.950Z,25.26
2023-04-04T01:52:37.979Z,25.25
2023-04-04T01:53:38.009Z,25.26
2023-04-04T01:54:38.068Z,25.23
2023-04-04T01:55:38.097Z,25.25
2023-04-04T01:56:38.160Z,25.28
2023-04-04T01:57:38.172Z,25.25
2023-04-04T01:58:38.210Z,25.26
2023-04-04T01:59:38.237Z,25.23
2023-04-04T02:00:38.417Z,25.28
2023-04-04T02:01:38.347Z,25.25
2023-04-04T02:02:38.353Z,25.26
2023-04-04T02:03:38.404Z,25.25
2023-04-04T02:04:38.422Z,25.23
2023-04-04T02:05:38.457Z,25.23
2023-04-04T02:06:38.501Z,25.25
2023-04-04T02:07:38.557Z,25.25
2023-04-04T02:08:38.598Z,25.23
2023-04-04T02:09:38.664Z,25.23
2023-04-04T02:10:39.107Z,25.23
2023-04-04T02:11:38.817Z,25.25
2023-04-04T02:12:38.902Z,25.25
2023-04-04T02:13:38.929Z,25.25
2023-04-04T02:14:39.103Z,25.23
2023-04-04T02:15:39.071Z,25.23
2023-04-04T02:16:39.133Z,25.25
2023-04-04T02:17:39.203Z,25.23
2023-04-04T02:18:39.256Z,25.23
2023-04-04T02:19:39.328Z,25.23
2023-04-04T02:20:39.525Z,25.25
2023-04-04T02:21:39.428Z,25.22
2023-04-04T02:22:39.496Z,25.21
2023-04-04T02:23:39.561Z,25.21
2023-04-04T02:24:39.636Z,25.23
2023-04-04T02:25:39.705Z,25.25
2023-04-04T02:26:39.755Z,25.23
2023-04-04T02:27:39.828Z,25.23
2023-04-04T02:28:39.888Z,25.22
2023-04-04T02:29:39.961Z,25.21
2023-04-04T02:30:40.261Z,25.22
2023-04-04T02:31:40.156Z,25.22
2023-04-04T02:32:40.177Z,25.21
2023-04-04T02:33:40.204Z,25.21
2023-04-04T02:34:40.290Z,25.22
2023-04-04T02:35:40.394Z,25.22
2023-04-04T02:36:40.420Z,25.19
2023-04-04T02:37:40.472Z,25.22
2023-04-04T02:38:40.532Z,25.18
2023-04-04T02:39:40.604Z,25.19
2023-04-04T02:40:40.964Z,25.21
2023-04-04T02:41:40.709Z,25.21
2023-04-04T02:42:40.772Z,25.22
2023-04-04T02:43:40.852Z,25.19
2023-04-04T02:44:40.923Z,25.22
2023-04-04T02:45:40.991Z,25.19
2023-04-04T02:46:41.065Z,25.19
2023-04-04T02:47:41.147Z,25.19
2023-04-04T02:48:41.102Z,25.19
2023-04-04T02:49:41.121Z,25.21
2023-04-04T02:50:41.233Z,25.21
2023-04-04T02:51:41.107Z,25.21
2023-04-04T02:52:41.107Z,25.19
2023-04-04T02:53:41.114Z,25.22
2023-04-04T02:54:41.126Z,25.19
2023-04-04T02:55:41.147Z,25.19
2023-04-04T02:56:41.136Z,25.19
2023-04-04T02:57:41.198Z,25.18
2023-04-04T02:58:42.624Z,25.21
2023-04-04T02:59:41.335Z,25.21
2023-04-04T03:00:41.659Z,25.19
2023-04-04T03:01:41.457Z,25.19
2023-04-04T03:02:41.591Z,25.19
2023-04-04T03:03:41.745Z,25.16
2023-04-04T03:04:41.654Z,25.19
2023-04-04T03:05:41.770Z,25.18
2023-04-04T03:06:41.797Z,25.18
2023-04-04T03:07:41.865Z,25.18
2023-04-04T03:08:41.944Z,25.21
2023-04-04T03:09:42.012Z,25.18
2023-04-04T03:10:42.268Z,25.16
2023-04-04T03:11:42.131Z,25.18
2023-04-04T03:12:42.186Z,25.19
2023-04-04T03:13:42.263Z,25.18
2023-04-04T03:14:42.311Z,25.18
2023-04-04T03:15:42.401Z,25.18
2023-04-04T03:16:42.457Z,25.16
2023-04-04T03:17:42.553Z,25.16
2023-04-04T03:18:42.597Z,25.19
2023-04-04T03:19:42.658Z,25.18
2023-04-04T03:20:42.775Z,25.16
2023-04-04T03:21:42.801Z,25.18
2023-04-04T03:22:42.841Z,25.15
2023-04-04T03:23:42.930Z,25.18
2023-04-04T03:24:42.970Z,25.16
2023-04-04T03:25:43.016Z,25.15
2023-04-04T03:26:43.080Z,25.16
2023-04-04T03:27:43.146Z,25.18
2023-04-04T03:28:43.192Z,25.18
2023-04-04T03:29:43.260Z,25.15
2023-04-04T03:30:43.512Z,25.16
2023-04-04T03:31:43.437Z,25.16
2023-04-04T03:32:43.496Z,25.18
2023-04-04T03:33:43.519Z,25.18
2023-04-04T03:34:43.555Z,25.16
2023-04-04T03:35:43.669Z,25.15
2023-04-04T03:36:43.716Z,25.13
2023-04-04T03:37:43.776Z,25.18
2023-04-04T03:38:43.839Z,25.15
2023-04-04T03:39:43.895Z,25.15
2023-04-04T03:40:44.422Z,25.13
2023-04-04T03:41:44.040Z,25.15
2023-04-04T03:42:44.125Z,25.16
2023-04-04T03:43:44.197Z,25.15
2023-04-04T03:44:44.262Z,25.15
2023-04-04T03:45:44.416Z,25.15
2023-04-04T03:46:44.416Z,25.12
2023-04-04T03:47:44.509Z,25.12
2023-04-04T03:48:44.566Z,25.15
2023-04-04T03:49:44.635Z,25.13
2023-04-04T03:50:44.720Z,25.13
2023-04-04T03:51:44.794Z,25.13
2023-04-04T03:52:44.858Z,25.13
2023-04-04T03:53:44.940Z,25.13
2023-04-04T03:54:45.006Z,25.11
2023-04-04T03:55:45.096Z,25.12
2023-04-04T03:56:45.148Z,25.12
2023-04-04T03:57:45.226Z,25.13
2023-04-04T03:58:45.331Z,25.12
2023-04-04T03:59:45.405Z,25.13
2023-04-04T04:00:45.462Z,25.13
2023-04-04T04:01:45.526Z,25.11
2023-04-04T04:02:45.718Z,25.12
2023-04-04T04:03:45.753Z,25.11
2023-04-04T04:04:45.809Z,25.09
2023-04-04T04:05:45.854Z,25.12
2023-04-04T04:06:45.898Z,25.12
2023-04-04T04:07:45.946Z,25.15
2023-04-04T04:08:46.015Z,25.13
2023-04-04T04:09:46.094Z,25.08
2023-04-04T04:10:46.206Z,25.12
2023-04-04T04:11:46.239Z,25.12
2023-04-04T04:12:46.344Z,25.11
2023-04-04T04:13:46.405Z,25.11
2023-04-04T04:14:46.459Z,25.12
2023-04-04T04:15:46.548Z,25.09
2023-04-04T04:16:46.476Z,25.11
2023-04-04T04:17:46.516Z,25.11
2023-04-04T04:18:46.491Z,25.12
2023-04-04T04:19:46.509Z,25.13
2023-04-04T04:20:46.508Z,25.11
2023-04-04T04:21:46.510Z,25.11
2023-04-04T04:22:46.535Z,25.09
2023-04-04T04:23:46.522Z,25.09
2023-04-04T04:24:46.567Z,25.09
2023-04-04T04:25:46.636Z,25.08
2023-04-04T04:26:46.710Z,25.08
2023-04-04T04:27:46.791Z,25.08
2023-04-04T04:28:46.872Z,25.09
2023-04-04T04:29:46.948Z,25.08
2023-04-04T04:30:47.043Z,25.09
2023-04-04T04:31:47.201Z,25.08
2023-04-04T04:32:47.178Z,25.08
2023-04-04T04:33:47.222Z,25.09
2023-04-04T04:34:47.271Z,25.09
2023-04-04T04:35:47.338Z,25.08
2023-04-04T04:36:47.387Z,25.09
2023-04-04T04:37:47.430Z,25.11
2023-04-04T04:38:47.472Z,25.09
2023-04-04T04:39:47.552Z,25.08
2023-04-04T04:40:47.536Z,25.06
2023-04-04T04:41:47.535Z,25.06
2023-04-04T04:42:47.543Z,25.06
2023-04-04T04:43:47.551Z,25.06
2023-04-04T04:44:47.544Z,25.09
2023-04-04T04:45:47.590Z,25.06
2023-04-04T04:46:47.678Z,25.09
2023-04-04T04:47:47.633Z,25.05
2023-04-04T04:48:47.590Z,25.09
2023-04-04T04:49:47.628Z,25.06
2023-04-04T04:50:47.701Z,25.08
2023-04-04T04:51:47.794Z,25.08
2023-04-04T04:52:47.815Z,25.06
2023-04-04T04:53:47.971Z,25.08
2023-04-04T04:54:48.009Z,25.09
2023-04-04T04:55:48.064Z,25.06
2023-04-04T04:56:48.145Z,25.08
2023-04-04T04:57:48.249Z,25.08
2023-04-04T04:58:48.355Z,25.08
2023-04-04T04:59:48.425Z,25.08
2023-04-04T05:00:48.490Z,25.08
2023-04-04T05:01:48.529Z,25.06
2023-04-04T05:02:48.721Z,25.06
2023-04-04T05:03:48.884Z,25.05
2023-04-04T05:04:48.695Z,25.08
2023-04-04T05:05:48.769Z,25.06
2023-04-04T05:06:48.846Z,25.06
2023-04-04T05:07:48.907Z,25.05
2023-04-04T05:08:48.938Z,25.08
2023-04-04T05:09:49.012Z,25.05
2023-04-04T05:10:49.118Z,25.08
2023-04-04T05:11:49.144Z,25.06
2023-04-04T05:12:49.193Z,25.06
2023-04-04T05:13:49.285Z,25.06
2023-04-04T05:14:49.288Z,25.05
2023-04-04T05:15:49.335Z,25.04
2023-04-04T05:16:49.379Z,25.05
2023-04-04T05:17:49.409Z,25.06
2023-04-04T05:18:49.444Z,25.04
2023-04-04T05:19:49.631Z,25.06
2023-04-04T05:20:49.582Z,25.08
2023-04-04T05:21:49.653Z,25.06
2023-04-04T05:22:51.578Z,25.05
2023-04-04T05:23:49.761Z,25.02
2023-04-04T05:24:49.781Z,25.06
2023-04-04T05:25:49.783Z,25.04
2023-04-04T05:26:49.794Z,25.05
2023-04-04T05:27:49.794Z,25.05
2023-04-04T05:28:49.825Z,25.05
2023-04-04T05:29:49.818Z,25.06
2023-04-04T05:30:49.800Z,25.05
2023-04-04T05:31:49.845Z,25.06
2023-04-04T05:32:49.829Z,25.04
2023-04-04T05:33:49.809Z,25.05
2023-04-04T05:34:49.806Z,25.08
2023-04-04T05:35:50.036Z,25.08
2023-04-04T05:36:49.875Z,25.08
2023-04-04T05:37:49.908Z,25.06
2023-04-04T05:38:49.983Z,25.06
2023-04-04T05:39:50.058Z,25.05
2023-04-04T05:40:50.140Z,25.09
2023-04-04T05:41:50.181Z,25.06
2023-04-04T05:42:50.207Z,25.06
2023-04-04T05:43:50.280Z,25.08
2023-04-04T05:44:50.323Z,25.08
2023-04-04T05:45:50.397Z,25.09
2023-04-04T05:46:50.404Z,25.08
2023-04-04T05:47:50.507Z,25.06
2023-04-04T05:48:50.463Z,25.08
2023-04-04T05:49:50.548Z,25.08
2023-04-04T05:50:50.573Z,25.06
2023-04-04T05:51:50.601Z,25.08
2023-04-04T05:52:50.634Z,25.05
2023-04-04T05:53:50.687Z,25.04
2023-04-04T05:54:50.720Z,25.05
2023-04-04T05:55:50.806Z,25.09
2023-04-04T05:56:50.811Z,25.05
2023-04-04T05:57:50.855Z,25.08
2023-04-04T05:58:50.936Z,25.08
2023-04-04T05:59:50.997Z,25.06
2023-04-04T06:00:51.046Z,25.08
2023-04-04T06:01:51.157Z,25.08
2023-04-04T06:02:51.302Z,25.09
2023-04-04T06:03:51.298Z,25.05
2023-04-04T06:04:51.280Z,25.06
2023-04-04T06:05:51.399Z,25.06
2023-04-04T06:06:51.357Z,25.05
2023-04-04T06:07:51.358Z,25.05
2023-04-04T06:08:53.919Z,25.06
2023-04-04T06:09:51.414Z,25.06
2023-04-04T06:10:51.412Z,25.08
2023-04-04T06:11:51.425Z,25.06
2023-04-04T06:12:51.407Z,25.09
2023-04-04T06:13:51.445Z,25.06
2023-04-04T06:14:51.402Z,25.08
2023-04-04T06:15:51.449Z,25.09
2023-04-04T06:16:51.423Z,25.08
2023-04-04T06:17:51.481Z,25.08
2023-04-04T06:18:51.443Z,25.08
2023-04-04T06:19:51.442Z,25.08
2023-04-04T06:20:51.482Z,25.09
2023-04-04T06:21:51.480Z,25.08
2023-04-04T06:22:51.516Z,25.09
2023-04-04T06:23:51.495Z,25.06
2023-04-04T06:24:51.529Z,25.11
2023-04-04T06:25:51.519Z,25.06
2023-04-04T06:26:51.650Z,25.08
2023-04-04T06:27:51.592Z,25.08
2023-04-04T06:28:51.554Z,25.09
2023-04-04T06:29:51.594Z,25.11
2023-04-04T06:30:51.588Z,25.11
2023-04-04T06:31:51.731Z,25.08
2023-04-04T06:32:51.642Z,25.08
2023-04-04T06:33:51.582Z,25.09
2023-04-04T06:34:51.575Z,25.08
2023-04-04T06:35:51.606Z,25.12
2023-04-04T06:36:51.660Z,25.11
2023-04-04T06:37:51.589Z,25.11
2023-04-04T06:38:51.597Z,25.08
2023-04-04T06:39:51.618Z,25.08
2023-04-04T06:40:51.602Z,25.12
2023-04-04T06:41:51.621Z,25.09
2023-04-04T06:42:51.592Z,25.08
2023-04-04T06:43:51.632Z,25.12
2023-04-04T06:44:51.628Z,25.11
2023-04-04T06:45:51.608Z,25.11
2023-04-04T06:46:51.629Z,25.11
2023-04-04T06:47:51.648Z,25.11
2023-04-04T06:48:51.616Z,25.12
2023-04-04T06:49:51.660Z,25.11
2023-04-04T06:50:51.631Z,25.12
2023-04-04T06:51:51.638Z,25.09
2023-04-04T06:52:51.647Z,25.13
2023-04-04T06:53:51.658Z,25.12
2023-04-04T06:54:51.695Z,25.13
2023-04-04T06:55:51.768Z,25.12
2023-04-04T06:56:51.870Z,25.15
2023-04-04T06:57:51.886Z,25.15
2023-04-04T06:58:52.022Z,25.16
2023-04-04T06:59:52.033Z,25.15
2023-04-04T07:00:52.157Z,25.16
2023-04-04T07:01:52.141Z,25.15
2023-04-04T07:02:52.124Z,25.18
2023-04-04T07:03:52.125Z,25.21
2023-04-04T07:04:52.133Z,25.21
2023-04-04T07:05:52.110Z,25.22
2023-04-04T07:06:52.137Z,25.23
2023-04-04T07:07:52.141Z,25.25
2023-04-04T07:08:52.128Z,25.29
2023-04-04T07:09:52.093Z,25.32
2023-04-04T07:10:52.106Z,25.32
2023-04-04T07:11:52.107Z,25.33
2023-04-04T07:12:52.196Z,25.33
2023-04-04T07:13:52.195Z,25.36
2023-04-04T07:14:52.144Z,25.37
2023-04-04T07:15:52.161Z,25.37
2023-04-04T07:16:52.299Z,25.39
2023-04-04T07:17:52.188Z,25.40
2023-04-04T07:18:52.163Z,25.41
2023-04-04T07:19:52.169Z,25.47
2023-04-04T07:20:52.165Z,25.44
2023-04-04T07:21:52.171Z,25.47
2023-04-04T07:22:52.179Z,25.51
2023-04-04T07:23:52.187Z,25.53
2023-04-04T07:24:52.192Z,25.53
2023-04-04T07:25:52.193Z,25.54
2023-04-04T07:26:52.202Z,25.57
2023-04-04T07:27:57.307Z,25.60
2023-04-04T07:28:53.205Z,25.60
2023-04-04T07:29:52.220Z,25.60
2023-04-04T07:30:52.223Z,25.63
2023-04-04T07:31:52.280Z,25.64
2023-04-04T07:32:52.258Z,25.67
2023-04-04T07:33:52.253Z,25.67
2023-04-04T07:34:52.260Z,25.68
2023-04-04T07:35:52.284Z,25.70
2023-04-04T07:36:52.276Z,25.70
2023-04-04T07:37:52.271Z,25.74
2023-04-04T07:38:52.289Z,25.75
2023-04-04T07:39:52.283Z,25.74
2023-04-04T07:40:52.291Z,25.75
2023-04-04T07:41:52.317Z,25.78
2023-04-04T07:42:52.304Z,25.80
2023-04-04T07:43:52.315Z,25.81
2023-04-04T07:44:52.396Z,25.81
2023-04-04T07:45:52.343Z,25.83
2023-04-04T07:47:06.217Z,25.85
2023-04-04T07:47:53.343Z,25.84
2023-04-04T07:48:52.306Z,25.84
2023-04-04T07:49:52.307Z,25.88
2023-04-04T07:50:52.311Z,25.85
2023-04-04T07:51:52.325Z,25.89
2023-04-04T07:52:52.445Z,25.89
2023-04-04T07:53:52.365Z,25.89
2023-04-04T07:54:52.336Z,25.91
2023-04-04T07:55:52.287Z,25.92
2023-04-04T07:56:52.315Z,25.92
2023-04-04T07:57:52.292Z,25.96
2023-04-04T07:58:52.317Z,25.96
2023-04-04T07:59:52.324Z,25.96
2023-04-04T08:00:52.283Z,25.99
2023-04-04T08:01:52.281Z,25.99
2023-04-04T08:02:52.385Z,26.01
2023-04-04T08:03:52.510Z,26.03
2023-04-04T08:04:52.309Z,26.02
2023-04-04T08:05:52.317Z,26.05
2023-04-04T08:06:52.253Z,26.06
2023-04-04T08:07:52.248Z,26.06
2023-04-04T08:08:52.227Z,26.06
2023-04-04T08:09:52.233Z,26.08
2023-04-04T08:10:52.252Z,26.09
2023-04-04T08:11:52.208Z,26.09
2023-04-04T08:12:52.249Z,26.11
2023-04-04T08:13:52.203Z,26.11
2023-04-04T08:14:52.193Z,26.12
2023-04-04T08:15:52.318Z,26.15
2023-04-04T08:16:52.314Z,26.13
2023-04-04T08:17:52.381Z,26.16
2023-04-04T08:18:52.426Z,26.15
2023-04-04T08:19:52.498Z,26.13
2023-04-04T08:20:52.608Z,26.16
2023-04-04T08:21:52.610Z,26.18
2023-04-04T08:22:52.719Z,26.16
2023-04-04T08:23:52.736Z,26.16
2023-04-04T08:24:52.769Z,26.19
2023-04-04T08:25:52.849Z,26.15
2023-04-04T08:27:04.529Z,26.13
2023-04-04T08:27:53.885Z,26.15
2023-04-04T08:28:52.859Z,26.16
2023-04-04T08:29:52.862Z,26.16
2023-04-04T08:30:52.870Z,26.15
2023-04-04T08:31:52.916Z,26.18
2023-04-04T08:32:52.874Z,26.16
2023-04-04T08:33:52.837Z,26.15
2023-04-04T08:34:52.837Z,26.15
2023-04-04T08:35:52.895Z,26.18
2023-04-04T08:36:52.854Z,26.18
2023-04-04T08:37:52.855Z,26.19
2023-04-04T08:38:52.876Z,26.18
2023-04-04T08:39:52.865Z,26.19
2023-04-04T08:40:52.870Z,26.15
2023-04-04T08:41:52.874Z,26.20
2023-04-04T08:42:52.887Z,26.20
2023-04-04T08:43:52.890Z,26.22
2023-04-04T08:44:52.874Z,26.20
2023-04-04T08:45:52.866Z,26.26
2023-04-04T08:46:52.910Z,26.19
2023-04-04T08:47:52.942Z,26.23
2023-04-04T08:48:52.898Z,26.22
2023-04-04T08:49:52.909Z,26.20
2023-04-04T08:50:52.866Z,26.23
2023-04-04T08:51:52.909Z,26.18
2023-04-04T08:52:52.859Z,26.20
2023-04-04T08:53:52.926Z,26.20
2023-04-04T08:54:52.933Z,26.23
2023-04-04T08:55:52.941Z,26.22
2023-04-04T08:56:53.214Z,26.28
2023-04-04T08:57:52.991Z,26.29
2023-04-04T08:58:53.110Z,26.30
2023-04-04T08:59:53.097Z,26.35
2023-04-04T09:00:53.085Z,26.37
2023-04-04T09:01:53.127Z,26.42
2023-04-04T09:02:53.237Z,26.43
2023-04-04T09:03:53.204Z,26.47
2023-04-04T09:05:05.502Z,26.47
2023-04-04T09:05:54.174Z,26.47
2023-04-04T09:06:53.177Z,26.47
2023-04-04T09:07:53.182Z,26.51
2023-04-04T09:08:53.233Z,26.51
2023-04-04T09:09:53.187Z,26.54
2023-04-04T09:10:53.226Z,26.55
2023-04-04T09:11:53.208Z,26.58
2023-04-04T09:12:57.192Z,26.55
2023-04-04T09:13:54.188Z,26.58
2023-04-04T09:14:53.177Z,26.60
2023-04-04T09:15:53.171Z,26.60
2023-04-04T09:16:53.244Z,26.61
2023-04-04T09:17:53.197Z,26.63
2023-04-04T09:18:53.241Z,26.61
2023-04-04T09:19:53.206Z,26.67
2023-04-04T09:20:53.151Z,26.67
2023-04-04T09:21:53.151Z,26.67
2023-04-04T09:22:53.254Z,26.68
2023-04-04T09:23:53.154Z,26.68
2023-04-04T09:24:53.126Z,26.70
2023-04-04T09:26:03.039Z,26.71
2023-04-04T09:26:54.137Z,26.74
2023-04-04T09:27:53.133Z,26.74
2023-04-04T09:28:53.112Z,26.77
2023-04-04T09:29:53.094Z,26.74
2023-04-04T09:30:53.103Z,26.77
2023-04-04T09:31:53.116Z,26.77
2023-04-04T09:32:53.138Z,26.80
2023-04-04T09:33:53.089Z,26.78
2023-04-04T09:34:53.046Z,26.82
2023-04-04T09:35:53.149Z,26.82
2023-04-04T09:36:53.056Z,26.87
2023-04-04T09:37:53.051Z,26.85
2023-04-04T09:38:53.053Z,26.85
2023-04-04T09:39:53.085Z,26.87
2023-04-04T09:40:53.054Z,26.85
2023-04-04T09:41:54.564Z,26.89
2023-04-04T09:42:53.043Z,26.91
2023-04-04T09:43:53.035Z,26.94
2023-04-04T09:44:52.983Z,26.94
2023-04-04T09:45:53.019Z,26.92
2023-04-04T09:46:52.965Z,26.97
2023-04-04T09:47:53.001Z,26.95
2023-04-04T09:48:52.975Z,26.95
2023-04-04T09:49:52.980Z,26.95
2023-04-04T09:50:52.954Z,26.97
2023-04-04T09:51:52.930Z,26.98
2023-04-04T09:52:52.937Z,26.99
2023-04-04T09:53:52.940Z,26.99
2023-04-04T09:55:52.932Z,27.02
2023-04-04T09:56:52.981Z,27.03
2023-04-04T09:57:53.036Z,27.05
2023-04-04T09:59:03.138Z,27.03
2023-04-04T09:59:54.112Z,27.05
2023-04-04T10:00:53.082Z,27.06
2023-04-04T10:01:53.450Z,27.06
2023-04-04T10:02:53.123Z,27.05
2023-04-04T10:03:53.087Z,27.08
2023-04-04T10:05:05.228Z,27.08
2023-04-04T10:05:54.010Z,27.09
2023-04-04T10:06:53.028Z,27.12
2023-04-04T10:07:53.000Z,27.12
2023-04-04T10:08:52.992Z,27.15
2023-04-04T10:09:53.017Z,27.17
2023-04-04T10:11:09.108Z,27.16
2023-04-04T10:11:53.931Z,27.19
2023-04-04T10:12:52.932Z,27.21
2023-04-04T10:13:52.880Z,27.19
2023-04-04T10:14:52.887Z,27.17
2023-04-04T10:15:52.871Z,27.22
2023-04-04T10:16:52.848Z,27.22
2023-04-04T10:17:52.836Z,27.19
2023-04-04T10:18:52.799Z,27.22
2023-04-04T10:19:52.801Z,27.22
2023-04-04T10:20:56.920Z,27.19
2023-04-04T10:21:53.757Z,27.22
2023-04-04T10:22:52.747Z,27.21
2023-04-04T10:23:52.732Z,27.15
2023-04-04T10:24:52.729Z,27.16
2023-04-04T10:25:52.689Z,27.19
2023-04-04T10:26:52.713Z,27.16
2023-04-04T10:27:52.654Z,27.19
2023-04-04T10:28:52.674Z,27.21
2023-04-04T10:29:52.628Z,27.22
2023-04-04T10:31:05.162Z,27.23
2023-04-04T10:31:53.634Z,27.21
2023-04-04T10:32:52.578Z,27.22
2023-04-04T10:33:52.563Z,27.19
2023-04-04T10:34:52.557Z,27.23
2023-04-04T10:35:52.582Z,27.28
2023-04-04T10:36:52.511Z,27.32
2023-04-04T10:37:52.469Z,27.29
2023-04-04T10:38:52.474Z,27.33
2023-04-04T10:39:52.479Z,27.34
2023-04-04T10:40:52.432Z,27.34
2023-04-04T10:41:52.439Z,27.37
2023-04-04T10:42:52.419Z,27.43
2023-04-04T10:43:52.409Z,27.39
2023-04-04T10:44:52.653Z,27.46
2023-04-04T10:45:52.384Z,27.43
2023-04-04T10:46:52.504Z,27.47
2023-04-04T10:47:52.394Z,27.50
2023-04-04T10:48:52.349Z,27.51
2023-04-04T10:49:52.374Z,27.51
2023-04-04T10:50:52.336Z,27.51
2023-04-04T10:51:56.378Z,27.50
2023-04-04T10:52:52.291Z,27.54
2023-04-04T10:53:52.317Z,27.54
2023-04-04T10:54:52.328Z,27.53
2023-04-04T10:55:52.292Z,27.56
2023-04-04T10:56:52.237Z,27.58
2023-04-04T10:57:52.227Z,27.57
2023-04-04T10:58:52.247Z,27.58
2023-04-04T10:59:52.202Z,27.54
2023-04-04T11:00:52.182Z,27.54
2023-04-04T11:01:52.137Z,27.56
2023-04-04T11:02:52.170Z,27.54
2023-04-04T11:05:11.299Z,27.53
2023-04-04T11:06:11.241Z,27.57
2023-04-04T11:07:11.234Z,27.56
2023-04-04T11:08:11.226Z,27.56
2023-04-04T11:09:11.193Z,27.57
2023-04-04T11:10:11.202Z,27.57
2023-04-04T11:11:21.880Z,27.57
2023-04-04T11:12:12.133Z,27.61
2023-04-04T11:13:13.376Z,27.62
2023-04-04T11:14:11.102Z,27.64
2023-04-04T11:15:11.125Z,27.65
2023-04-04T11:16:11.079Z,27.62
2023-04-04T11:17:11.075Z,27.67
2023-04-04T11:18:26.509Z,27.67
2023-04-04T11:19:12.006Z,27.69
2023-04-04T11:20:11.006Z,27.71
2023-04-04T11:21:10.975Z,27.74
2023-04-04T11:22:10.969Z,27.75
2023-04-04T11:23:11.201Z,27.74
2023-04-04T11:24:10.917Z,27.77
2023-04-04T11:25:10.921Z,27.77
2023-04-04T11:26:10.896Z,27.75
2023-04-04T11:27:10.855Z,27.78
2023-04-04T11:28:10.985Z,27.77
2023-04-04T11:29:10.951Z,27.72
2023-04-04T11:30:10.993Z,27.72
2023-04-04T11:31:11.025Z,27.74
2023-04-04T11:32:11.136Z,27.74
2023-04-04T11:33:11.169Z,27.77
2023-04-04T11:34:11.330Z,27.74
2023-04-04T11:35:11.255Z,27.72
2023-04-04T11:36:11.293Z,27.71
2023-04-04T11:37:11.305Z,27.71
2023-04-04T11:38:11.343Z,27.71
2023-04-04T11:39:11.384Z,27.69
2023-04-04T11:40:11.460Z,27.72
2023-04-04T11:41:11.499Z,27.67
2023-04-04T11:42:11.560Z,27.68
2023-04-04T11:43:11.577Z,27.68
2023-04-04T11:44:11.625Z,27.68
2023-04-04T11:45:11.676Z,27.67
2023-04-04T11:46:11.734Z,27.71
2023-04-04T11:47:11.877Z,27.71
2023-04-04T11:48:11.796Z,27.75
2023-04-04T11:49:11.822Z,27.74
2023-04-04T11:50:11.877Z,27.75
2023-04-04T11:51:11.930Z,27.77
2023-04-04T11:52:11.960Z,27.75
2023-04-04T11:53:11.990Z,27.74
2023-04-04T11:54:12.029Z,27.77
2023-04-04T11:55:12.097Z,27.77
2023-04-04T11:56:12.108Z,27.81
2023-04-04T11:57:12.199Z,27.80
2023-04-04T11:58:13.262Z,27.81
2023-04-04T11:59:12.295Z,27.83
2023-04-04T12:00:12.251Z,27.81
2023-04-04T12:01:12.275Z,27.81
2023-04-04T12:02:12.322Z,27.84
2023-04-04T12:03:12.476Z,27.87
2023-04-04T12:04:12.403Z,27.89
2023-04-04T12:05:12.444Z,27.89
2023-04-04T12:06:12.359Z,27.88
2023-04-04T12:07:12.285Z,27.89
2023-04-04T12:08:12.293Z,27.91
2023-04-04T12:09:12.257Z,27.89
2023-04-04T12:10:12.262Z,27.91
2023-04-04T12:11:12.241Z,27.96
2023-04-04T12:12:12.210Z,27.96
2023-04-04T12:13:12.216Z,27.95
2023-04-04T12:14:12.207Z,27.98
2023-04-04T12:15:17.290Z,27.99
2023-04-04T12:16:13.201Z,28.01
2023-04-04T12:17:12.142Z,28.03
2023-04-04T12:18:12.212Z,28.01
2023-04-04T12:19:12.090Z,28.02
2023-04-04T12:20:12.165Z,28.01
2023-04-04T12:21:12.061Z,28.01
2023-04-04T12:22:12.078Z,27.99
2023-04-04T12:23:12.044Z,27.99
2023-04-04T12:24:12.058Z,27.99
2023-04-04T12:25:11.993Z,28.02
2023-04-04T12:26:11.995Z,28.02
2023-04-04T12:27:11.966Z,28.03
2023-04-04T12:28:11.938Z,28.02
2023-04-04T12:29:12.016Z,28.03
2023-04-04T12:30:11.913Z,28.05
2023-04-04T12:31:12.038Z,28.03
2023-04-04T12:32:11.926Z,28.05
2023-04-04T12:33:11.968Z,28.01
2023-04-04T12:34:11.942Z,28.02
2023-04-04T12:35:11.914Z,28.02
2023-04-04T12:36:11.926Z,28.03
2023-04-04T12:37:11.893Z,28.03
2023-04-04T12:38:11.861Z,28.02
2023-04-04T12:39:11.829Z,28.05
2023-04-04T12:40:11.827Z,28.05
2023-04-04T12:41:11.797Z,28.05
2023-04-04T12:42:11.782Z,28.01
2023-04-04T12:43:11.748Z,28.06
2023-04-04T12:44:11.733Z,28.05
2023-04-04T12:45:11.697Z,28.03
2023-04-04T12:46:11.721Z,28.08
2023-04-04T12:47:11.674Z,28.06
2023-04-04T12:48:11.655Z,28.09
2023-04-04T12:49:11.629Z,28.09
2023-04-04T12:50:11.636Z,28.12
2023-04-04T12:51:11.630Z,28.12
2023-04-04T12:52:11.626Z,28.11
2023-04-04T12:53:27.340Z,28.13
2023-04-04T12:54:12.653Z,28.16
2023-04-04T12:55:11.590Z,28.12